sensor_id;sensor_type;location;lat;lon;timestamp;P1;durP1;ratioP1;P2;durP2;ratioP2
23506;SDS011;11930;53.076;18.250;2022-10-31T00:01:38;144.53;;;38.27;;
23506;SDS011;11930;53.076;18.250;2022-10-31T00:04:04;149.97;;;36.93;;
23506;SDS011;11930;53.076;18.250;2022-10-31T00:06:31;119.40;;;34.70;;
23506;SDS011;11930;53.076;18.250;2022-10-31T00:09:00;72.90;;;32.37;;
23506;SDS011;11930;53.076;18.250;2022-10-31T00:11:29;66.03;;;31.80;;
23506;SDS011;11930;53.076;18.250;2022-10-31T00:13:56;55.93;;;29.90;;
23506;SDS011;11930;53.076;18.250;2022-10-31T00:16:24;92.07;;;31.47;;
23506;SDS011;11930;53.076;18.250;2022-10-31T00:18:51;190.47;;;39.73;;
23506;SDS011;11930;53.076;18.250;2022-10-31T00:21:17;66.33;;;31.57;;
23506;SDS011;11930;53.076;18.250;2022-10-31T00:23:44;97.60;;;33.67;;
23506;SDS011;11930;53.076;18.250;2022-10-31T00:26:09;81.47;;;30.93;;
23506;SDS011;11930;53.076;18.250;2022-10-31T00:28:36;65.20;;;30.17;;
23506;SDS011;11930;53.076;18.250;2022-10-31T00:31:03;54.93;;;29.47;;
23506;SDS011;11930;53.076;18.250;2022-10-31T00:33:33;57.93;;;30.40;;
23506;SDS011;11930;53.076;18.250;2022-10-31T00:36:02;70.97;;;31.07;;
23506;SDS011;11930;53.076;18.250;2022-10-31T00:38:29;52.13;;;27.13;;
23506;SDS011;11930;53.076;18.250;2022-10-31T00:40:55;59.30;;;29.63;;
23506;SDS011;11930;53.076;18.250;2022-10-31T00:43:21;58.73;;;29.23;;
23506;SDS011;11930;53.076;18.250;2022-10-31T00:45:47;59.00;;;30.03;;
23506;SDS011;11930;53.076;18.250;2022-10-31T00:48:13;61.63;;;29.57;;
23506;SDS011;11930;53.076;18.250;2022-10-31T00:50:39;53.57;;;27.77;;
23506;SDS011;11930;53.076;18.250;2022-10-31T00:53:06;48.70;;;28.27;;
23506;SDS011;11930;53.076;18.250;2022-10-31T00:55:32;64.70;;;30.30;;
23506;SDS011;11930;53.076;18.250;2022-10-31T00:57:59;62.23;;;29.40;;
23506;SDS011;11930;53.076;18.250;2022-10-31T01:00:24;52.50;;;28.30;;
23506;SDS011;11930;53.076;18.250;2022-10-31T01:02:51;90.30;;;32.30;;
23506;SDS011;11930;53.076;18.250;2022-10-31T01:05:17;72.63;;;30.83;;
23506;SDS011;11930;53.076;18.250;2022-10-31T01:07:45;80.73;;;31.70;;
23506;SDS011;11930;53.076;18.250;2022-10-31T01:10:12;95.83;;;35.57;;
23506;SDS011;11930;53.076;18.250;2022-10-31T01:12:38;74.57;;;31.97;;
23506;SDS011;11930;53.076;18.250;2022-10-31T01:15:07;143.13;;;38.17;;
23506;SDS011;11930;53.076;18.250;2022-10-31T01:17:34;112.23;;;36.10;;
23506;SDS011;11930;53.076;18.250;2022-10-31T01:20:00;88.77;;;32.90;;
23506;SDS011;11930;53.076;18.250;2022-10-31T01:22:27;163.17;;;38.73;;
23506;SDS011;11930;53.076;18.250;2022-10-31T01:24:53;106.53;;;37.57;;
23506;SDS011;11930;53.076;18.250;2022-10-31T01:27:19;175.37;;;40.17;;
23506;SDS011;11930;53.076;18.250;2022-10-31T01:29:45;224.67;;;43.10;;
23506;SDS011;11930;53.076;18.250;2022-10-31T01:32:11;236.13;;;43.93;;
23506;SDS011;11930;53.076;18.250;2022-10-31T01:34:37;130.70;;;36.90;;
23506;SDS011;11930;53.076;18.250;2022-10-31T01:37:03;190.50;;;42.50;;
23506;SDS011;11930;53.076;18.250;2022-10-31T01:39:29;68.13;;;32.60;;
23506;SDS011;11930;53.076;18.250;2022-10-31T01:41:55;223.23;;;42.90;;
23506;SDS011;11930;53.076;18.250;2022-10-31T01:49:40;88.50;;;35.73;;
23506;SDS011;11930;53.076;18.250;2022-10-31T01:52:12;236.00;;;43.30;;
23506;SDS011;11930;53.076;18.250;2022-10-31T01:54:53;194.60;;;40.77;;
23506;SDS011;11930;53.076;18.250;2022-10-31T01:57:21;178.70;;;38.77;;
23506;SDS011;11930;53.076;18.250;2022-10-31T01:59:51;209.70;;;41.53;;
23506;SDS011;11930;53.076;18.250;2022-10-31T02:02:21;66.67;;;31.93;;
23506;SDS011;11930;53.076;18.250;2022-10-31T02:04:49;325.87;;;45.87;;
23506;SDS011;11930;53.076;18.250;2022-10-31T02:07:24;238.60;;;42.30;;
23506;SDS011;11930;53.076;18.250;2022-10-31T02:09:58;168.20;;;38.13;;
23506;SDS011;11930;53.076;18.250;2022-10-31T02:12:25;296.07;;;46.13;;
23506;SDS011;11930;53.076;18.250;2022-10-31T02:14:58;318.03;;;45.10;;
23506;SDS011;11930;53.076;18.250;2022-10-31T02:17:25;293.93;;;46.13;;
23506;SDS011;11930;53.076;18.250;2022-10-31T02:19:56;325.00;;;46.03;;
23506;SDS011;11930;53.076;18.250;2022-10-31T02:34:17;317.43;;;46.10;;
23506;SDS011;11930;53.076;18.250;2022-10-31T02:36:52;195.03;;;38.30;;
23506;SDS011;11930;53.076;18.250;2022-10-31T02:39:36;228.57;;;40.27;;
23506;SDS011;11930;53.076;18.250;2022-10-31T02:42:56;93.60;;;31.07;;
23506;SDS011;11930;53.076;18.250;2022-10-31T02:48:10;68.70;;;30.53;;
23506;SDS011;11930;53.076;18.250;2022-10-31T02:50:45;330.33;;;44.03;;
23506;SDS011;11930;53.076;18.250;2022-10-31T02:53:26;182.63;;;38.40;;
23506;SDS011;11930;53.076;18.250;2022-10-31T02:55:56;107.57;;;32.03;;
23506;SDS011;11930;53.076;18.250;2022-10-31T02:58:38;71.70;;;30.33;;
23506;SDS011;11930;53.076;18.250;2022-10-31T03:01:14;257.70;;;40.87;;
23506;SDS011;11930;53.076;18.250;2022-10-31T03:09:46;125.87;;;35.83;;
23506;SDS011;11930;53.076;18.250;2022-10-31T03:12:38;140.63;;;34.67;;
23506;SDS011;11930;53.076;18.250;2022-10-31T03:15:13;97.90;;;33.20;;
23506;SDS011;11930;53.076;18.250;2022-10-31T03:20:26;259.67;;;42.73;;
23506;SDS011;11930;53.076;18.250;2022-10-31T03:23:08;83.37;;;31.47;;
23506;SDS011;11930;53.076;18.250;2022-10-31T03:25:39;253.53;;;41.40;;
23506;SDS011;11930;53.076;18.250;2022-10-31T03:28:07;185.67;;;38.57;;
23506;SDS011;11930;53.076;18.250;2022-10-31T03:30:38;170.27;;;37.53;;
23506;SDS011;11930;53.076;18.250;2022-10-31T03:33:07;121.63;;;34.33;;
23506;SDS011;11930;53.076;18.250;2022-10-31T03:35:39;80.37;;;32.20;;
23506;SDS011;11930;53.076;18.250;2022-10-31T03:38:08;75.67;;;30.43;;
23506;SDS011;11930;53.076;18.250;2022-10-31T03:40:36;102.67;;;32.80;;
23506;SDS011;11930;53.076;18.250;2022-10-31T03:43:06;109.47;;;32.70;;
23506;SDS011;11930;53.076;18.250;2022-10-31T03:45:38;102.43;;;32.20;;
23506;SDS011;11930;53.076;18.250;2022-10-31T03:48:08;91.83;;;31.67;;
23506;SDS011;11930;53.076;18.250;2022-10-31T03:56:29;73.03;;;28.93;;
23506;SDS011;11930;53.076;18.250;2022-10-31T03:58:57;82.00;;;28.33;;
23506;SDS011;11930;53.076;18.250;2022-10-31T04:01:29;90.70;;;29.63;;
23506;SDS011;11930;53.076;18.250;2022-10-31T04:03:57;72.67;;;27.97;;
23506;SDS011;11930;53.076;18.250;2022-10-31T04:06:24;63.07;;;27.50;;
23506;SDS011;11930;53.076;18.250;2022-10-31T04:08:52;83.53;;;28.93;;
23506;SDS011;11930;53.076;18.250;2022-10-31T04:11:25;62.77;;;26.77;;
23506;SDS011;11930;53.076;18.250;2022-10-31T04:14:15;62.93;;;27.67;;
23506;SDS011;11930;53.076;18.250;2022-10-31T04:16:42;51.63;;;27.30;;
23506;SDS011;11930;53.076;18.250;2022-10-31T04:19:10;58.63;;;27.23;;
23506;SDS011;11930;53.076;18.250;2022-10-31T04:21:37;65.23;;;28.07;;
23506;SDS011;11930;53.076;18.250;2022-10-31T04:24:03;57.67;;;26.60;;
23506;SDS011;11930;53.076;18.250;2022-10-31T04:26:30;56.03;;;26.50;;
23506;SDS011;11930;53.076;18.250;2022-10-31T04:28:57;65.03;;;27.80;;
23506;SDS011;11930;53.076;18.250;2022-10-31T04:31:26;53.50;;;26.47;;
23506;SDS011;11930;53.076;18.250;2022-10-31T04:33:52;57.63;;;26.70;;
23506;SDS011;11930;53.076;18.250;2022-10-31T04:36:18;48.77;;;27.37;;
23506;SDS011;11930;53.076;18.250;2022-10-31T04:38:44;74.83;;;27.40;;
23506;SDS011;11930;53.076;18.250;2022-10-31T04:41:33;55.30;;;25.60;;
23506;SDS011;11930;53.076;18.250;2022-10-31T04:44:01;64.60;;;27.97;;
23506;SDS011;11930;53.076;18.250;2022-10-31T04:46:27;49.20;;;26.73;;
23506;SDS011;11930;53.076;18.250;2022-10-31T04:48:56;52.90;;;26.90;;
23506;SDS011;11930;53.076;18.250;2022-10-31T04:51:23;55.50;;;27.00;;
23506;SDS011;11930;53.076;18.250;2022-10-31T04:53:50;59.70;;;25.97;;
23506;SDS011;11930;53.076;18.250;2022-10-31T04:56:34;52.93;;;26.60;;
23506;SDS011;11930;53.076;18.250;2022-10-31T04:59:06;50.83;;;26.50;;
23506;SDS011;11930;53.076;18.250;2022-10-31T05:01:48;55.00;;;26.07;;
23506;SDS011;11930;53.076;18.250;2022-10-31T05:04:16;61.17;;;27.13;;
23506;SDS011;11930;53.076;18.250;2022-10-31T05:06:43;57.93;;;27.53;;
23506;SDS011;11930;53.076;18.250;2022-10-31T05:09:08;82.77;;;29.07;;
23506;SDS011;11930;53.076;18.250;2022-10-31T05:11:35;51.93;;;27.43;;
23506;SDS011;11930;53.076;18.250;2022-10-31T05:14:15;72.57;;;29.83;;
23506;SDS011;11930;53.076;18.250;2022-10-31T05:17:04;68.17;;;27.03;;
23506;SDS011;11930;53.076;18.250;2022-10-31T05:19:48;75.33;;;26.93;;
23506;SDS011;11930;53.076;18.250;2022-10-31T05:22:43;47.57;;;26.13;;
23506;SDS011;11930;53.076;18.250;2022-10-31T05:25:10;88.87;;;29.37;;
23506;SDS011;11930;53.076;18.250;2022-10-31T05:27:40;123.30;;;32.33;;
23506;SDS011;11930;53.076;18.250;2022-10-31T05:30:07;77.00;;;28.97;;
23506;SDS011;11930;53.076;18.250;2022-10-31T05:32:40;50.40;;;27.00;;
23506;SDS011;11930;53.076;18.250;2022-10-31T05:35:39;100.07;;;29.40;;
23506;SDS011;11930;53.076;18.250;2022-10-31T05:38:24;59.67;;;27.87;;
23506;SDS011;11930;53.076;18.250;2022-10-31T05:40:50;118.50;;;31.97;;
23506;SDS011;11930;53.076;18.250;2022-10-31T05:43:20;104.60;;;37.00;;
23506;SDS011;11930;53.076;18.250;2022-10-31T05:45:46;162.80;;;43.87;;
23506;SDS011;11930;53.076;18.250;2022-10-31T05:48:32;141.67;;;37.63;;
23506;SDS011;11930;53.076;18.250;2022-10-31T05:51:27;104.27;;;34.40;;
23506;SDS011;11930;53.076;18.250;2022-10-31T05:53:53;72.60;;;31.60;;
23506;SDS011;11930;53.076;18.250;2022-10-31T05:56:21;161.33;;;37.07;;
23506;SDS011;11930;53.076;18.250;2022-10-31T05:58:48;141.60;;;35.57;;
23506;SDS011;11930;53.076;18.250;2022-10-31T06:01:14;213.53;;;42.43;;
23506;SDS011;11930;53.076;18.250;2022-10-31T06:03:43;131.63;;;39.73;;
23506;SDS011;11930;53.076;18.250;2022-10-31T06:06:09;172.73;;;39.80;;
23506;SDS011;11930;53.076;18.250;2022-10-31T06:08:39;78.93;;;37.27;;
23506;SDS011;11930;53.076;18.250;2022-10-31T06:11:11;93.70;;;38.40;;
23506;SDS011;11930;53.076;18.250;2022-10-31T06:13:56;190.57;;;42.00;;
23506;SDS011;11930;53.076;18.250;2022-10-31T06:16:25;136.90;;;38.17;;
23506;SDS011;11930;53.076;18.250;2022-10-31T06:18:55;135.77;;;37.20;;
23506;SDS011;11930;53.076;18.250;2022-10-31T06:21:21;148.77;;;38.23;;
23506;SDS011;11930;53.076;18.250;2022-10-31T06:23:49;138.60;;;40.53;;
23506;SDS011;11930;53.076;18.250;2022-10-31T06:26:51;73.17;;;33.97;;
23506;SDS011;11930;53.076;18.250;2022-10-31T06:29:17;127.50;;;36.17;;
23506;SDS011;11930;53.076;18.250;2022-10-31T06:32:03;134.97;;;33.30;;
23506;SDS011;11930;53.076;18.250;2022-10-31T06:34:34;186.83;;;38.47;;
23506;SDS011;11930;53.076;18.250;2022-10-31T06:37:00;156.90;;;37.40;;
23506;SDS011;11930;53.076;18.250;2022-10-31T06:39:28;124.77;;;33.43;;
23506;SDS011;11930;53.076;18.250;2022-10-31T06:41:54;64.57;;;29.80;;
23506;SDS011;11930;53.076;18.250;2022-10-31T06:44:21;109.40;;;39.23;;
23506;SDS011;11930;53.076;18.250;2022-10-31T06:46:49;58.10;;;30.43;;
23506;SDS011;11930;53.076;18.250;2022-10-31T06:49:42;74.00;;;29.60;;
23506;SDS011;11930;53.076;18.250;2022-10-31T06:52:14;78.67;;;29.53;;
23506;SDS011;11930;53.076;18.250;2022-10-31T06:54:40;68.67;;;29.97;;
23506;SDS011;11930;53.076;18.250;2022-10-31T06:57:07;128.10;;;34.13;;
23506;SDS011;11930;53.076;18.250;2022-10-31T06:59:34;133.80;;;33.73;;
23506;SDS011;11930;53.076;18.250;2022-10-31T07:02:24;88.10;;;30.50;;
23506;SDS011;11930;53.076;18.250;2022-10-31T07:04:50;184.37;;;38.37;;
23506;SDS011;11930;53.076;18.250;2022-10-31T07:07:17;155.67;;;34.40;;
23506;SDS011;11930;53.076;18.250;2022-10-31T07:09:44;117.33;;;31.03;;
23506;SDS011;11930;53.076;18.250;2022-10-31T07:12:13;163.10;;;38.33;;
23506;SDS011;11930;53.076;18.250;2022-10-31T07:14:48;125.90;;;36.00;;
23506;SDS011;11930;53.076;18.250;2022-10-31T07:17:14;110.67;;;34.43;;
23506;SDS011;11930;53.076;18.250;2022-10-31T07:19:43;92.43;;;31.07;;
23506;SDS011;11930;53.076;18.250;2022-10-31T07:22:11;95.13;;;30.70;;
23506;SDS011;11930;53.076;18.250;2022-10-31T07:24:39;64.27;;;30.63;;
23506;SDS011;11930;53.076;18.250;2022-10-31T07:27:23;78.90;;;31.07;;
23506;SDS011;11930;53.076;18.250;2022-10-31T07:29:49;182.37;;;37.30;;
23506;SDS011;11930;53.076;18.250;2022-10-31T07:32:16;107.83;;;31.70;;
23506;SDS011;11930;53.076;18.250;2022-10-31T07:34:48;80.53;;;32.20;;
23506;SDS011;11930;53.076;18.250;2022-10-31T07:37:22;120.33;;;34.03;;
23506;SDS011;11930;53.076;18.250;2022-10-31T07:39:48;154.83;;;36.13;;
23506;SDS011;11930;53.076;18.250;2022-10-31T07:42:15;112.60;;;34.83;;
23506;SDS011;11930;53.076;18.250;2022-10-31T07:44:44;72.57;;;32.80;;
23506;SDS011;11930;53.076;18.250;2022-10-31T07:47:28;172.17;;;39.03;;
23506;SDS011;11930;53.076;18.250;2022-10-31T07:50:14;114.20;;;34.47;;
23506;SDS011;11930;53.076;18.250;2022-10-31T07:52:57;158.13;;;38.53;;
23506;SDS011;11930;53.076;18.250;2022-10-31T07:55:58;77.97;;;33.80;;
23506;SDS011;11930;53.076;18.250;2022-10-31T07:58:28;142.07;;;38.30;;
23506;SDS011;11930;53.076;18.250;2022-10-31T08:00:58;118.80;;;38.00;;
23506;SDS011;11930;53.076;18.250;2022-10-31T08:03:32;153.13;;;39.40;;
23506;SDS011;11930;53.076;18.250;2022-10-31T08:06:17;143.37;;;39.60;;
23506;SDS011;11930;53.076;18.250;2022-10-31T08:08:43;67.93;;;35.30;;
23506;SDS011;11930;53.076;18.250;2022-10-31T08:11:09;130.63;;;38.47;;
23506;SDS011;11930;53.076;18.250;2022-10-31T08:13:37;153.00;;;39.10;;
23506;SDS011;11930;53.076;18.250;2022-10-31T08:16:03;69.70;;;34.70;;
23506;SDS011;11930;53.076;18.250;2022-10-31T08:18:32;147.57;;;40.40;;
23506;SDS011;11930;53.076;18.250;2022-10-31T08:20:59;97.37;;;35.87;;
23506;SDS011;11930;53.076;18.250;2022-10-31T08:23:25;102.07;;;35.70;;
23506;SDS011;11930;53.076;18.250;2022-10-31T08:25:53;95.53;;;35.73;;
23506;SDS011;11930;53.076;18.250;2022-10-31T08:28:19;113.60;;;36.93;;
23506;SDS011;11930;53.076;18.250;2022-10-31T08:30:49;80.93;;;33.40;;
23506;SDS011;11930;53.076;18.250;2022-10-31T08:33:38;87.93;;;34.97;;
23506;SDS011;11930;53.076;18.250;2022-10-31T08:36:13;84.73;;;38.83;;
23506;SDS011;11930;53.076;18.250;2022-10-31T08:38:53;99.07;;;35.23;;
23506;SDS011;11930;53.076;18.250;2022-10-31T08:41:20;92.73;;;34.17;;
23506;SDS011;11930;53.076;18.250;2022-10-31T08:43:46;85.43;;;33.67;;
23506;SDS011;11930;53.076;18.250;2022-10-31T08:46:14;95.40;;;34.47;;
23506;SDS011;11930;53.076;18.250;2022-10-31T08:48:42;59.60;;;32.97;;
23506;SDS011;11930;53.076;18.250;2022-10-31T08:51:09;56.97;;;31.93;;
23506;SDS011;11930;53.076;18.250;2022-10-31T08:53:36;111.57;;;33.83;;
23506;SDS011;11930;53.076;18.250;2022-10-31T08:56:28;90.53;;;32.13;;
23506;SDS011;11930;53.076;18.250;2022-10-31T08:58:55;66.50;;;31.90;;
23506;SDS011;11930;53.076;18.250;2022-10-31T09:01:32;90.30;;;33.00;;
23506;SDS011;11930;53.076;18.250;2022-10-31T09:03:58;84.97;;;33.30;;
23506;SDS011;11930;53.076;18.250;2022-10-31T09:06:25;86.77;;;33.47;;
23506;SDS011;11930;53.076;18.250;2022-10-31T09:08:52;92.97;;;31.83;;
23506;SDS011;11930;53.076;18.250;2022-10-31T09:11:18;75.20;;;34.17;;
23506;SDS011;11930;53.076;18.250;2022-10-31T09:14:03;82.43;;;32.83;;
23506;SDS011;11930;53.076;18.250;2022-10-31T09:16:52;96.27;;;32.27;;
23506;SDS011;11930;53.076;18.250;2022-10-31T09:19:22;79.83;;;31.10;;
23506;SDS011;11930;53.076;18.250;2022-10-31T09:21:51;96.20;;;31.50;;
23506;SDS011;11930;53.076;18.250;2022-10-31T09:24:18;61.23;;;29.30;;
23506;SDS011;11930;53.076;18.250;2022-10-31T09:26:44;50.33;;;29.47;;
23506;SDS011;11930;53.076;18.250;2022-10-31T09:29:16;58.80;;;30.53;;
23506;SDS011;11930;53.076;18.250;2022-10-31T09:31:44;74.47;;;28.70;;
23506;SDS011;11930;53.076;18.250;2022-10-31T09:34:24;62.00;;;29.87;;
23506;SDS011;11930;53.076;18.250;2022-10-31T09:37:01;56.97;;;30.20;;
23506;SDS011;11930;53.076;18.250;2022-10-31T09:39:27;70.43;;;30.10;;
23506;SDS011;11930;53.076;18.250;2022-10-31T09:45:12;58.10;;;29.47;;
23506;SDS011;11930;53.076;18.250;2022-10-31T09:48:13;63.63;;;29.23;;
23506;SDS011;11930;53.076;18.250;2022-10-31T09:51:00;74.80;;;29.63;;
23506;SDS011;11930;53.076;18.250;2022-10-31T09:54:05;67.37;;;29.63;;
23506;SDS011;11930;53.076;18.250;2022-10-31T09:56:38;70.20;;;28.70;;
23506;SDS011;11930;53.076;18.250;2022-10-31T09:59:05;62.80;;;28.83;;
23506;SDS011;11930;53.076;18.250;2022-10-31T10:02:19;59.13;;;29.70;;
23506;SDS011;11930;53.076;18.250;2022-10-31T10:10:27;53.33;;;29.00;;
23506;SDS011;11930;53.076;18.250;2022-10-31T10:15:53;56.60;;;27.37;;
23506;SDS011;11930;53.076;18.250;2022-10-31T10:18:49;62.93;;;27.60;;
23506;SDS011;11930;53.076;18.250;2022-10-31T10:26:54;53.70;;;29.03;;
23506;SDS011;11930;53.076;18.250;2022-10-31T10:29:44;60.17;;;30.27;;
23506;SDS011;11930;53.076;18.250;2022-10-31T10:32:23;55.17;;;29.03;;
23506;SDS011;11930;53.076;18.250;2022-10-31T10:34:58;58.03;;;28.73;;
23506;SDS011;11930;53.076;18.250;2022-10-31T10:37:38;70.67;;;29.13;;
23506;SDS011;11930;53.076;18.250;2022-10-31T10:40:13;58.33;;;29.70;;
23506;SDS011;11930;53.076;18.250;2022-10-31T10:43:10;60.57;;;31.40;;
23506;SDS011;11930;53.076;18.250;2022-10-31T10:52:13;72.70;;;31.83;;
23506;SDS011;11930;53.076;18.250;2022-10-31T11:00:38;71.50;;;32.03;;
23506;SDS011;11930;53.076;18.250;2022-10-31T11:02:59;58.37;;;31.67;;
23506;SDS011;11930;53.076;18.250;2022-10-31T11:05:29;85.60;;;33.27;;
23506;SDS011;11930;53.076;18.250;2022-10-31T11:08:00;71.30;;;33.13;;
23506;SDS011;11930;53.076;18.250;2022-10-31T11:10:27;72.93;;;34.37;;
23506;SDS011;11930;53.076;18.250;2022-10-31T11:18:37;106.73;;;37.83;;
23506;SDS011;11930;53.076;18.250;2022-10-31T11:21:17;116.80;;;40.57;;
23506;SDS011;11930;53.076;18.250;2022-10-31T11:24:12;129.27;;;40.07;;
23506;SDS011;11930;53.076;18.250;2022-10-31T11:26:41;124.07;;;41.03;;
23506;SDS011;11930;53.076;18.250;2022-10-31T11:29:42;132.00;;;40.00;;
23506;SDS011;11930;53.076;18.250;2022-10-31T11:32:02;96.33;;;38.07;;
23506;SDS011;11930;53.076;18.250;2022-10-31T11:34:29;100.23;;;39.60;;
23506;SDS011;11930;53.076;18.250;2022-10-31T11:37:09;103.23;;;36.20;;
23506;SDS011;11930;53.076;18.250;2022-10-31T11:39:42;128.37;;;36.70;;
23506;SDS011;11930;53.076;18.250;2022-10-31T11:42:11;86.83;;;36.10;;
23506;SDS011;11930;53.076;18.250;2022-10-31T11:44:40;82.03;;;35.13;;
23506;SDS011;11930;53.076;18.250;2022-10-31T11:47:12;86.40;;;35.10;;
23506;SDS011;11930;53.076;18.250;2022-10-31T11:49:43;84.93;;;35.37;;
23506;SDS011;11930;53.076;18.250;2022-10-31T11:52:15;71.97;;;33.00;;
23506;SDS011;11930;53.076;18.250;2022-10-31T11:54:53;100.33;;;33.97;;
23506;SDS011;11930;53.076;18.250;2022-10-31T11:57:25;118.47;;;34.77;;
23506;SDS011;11930;53.076;18.250;2022-10-31T11:59:54;92.70;;;35.67;;
23506;SDS011;11930;53.076;18.250;2022-10-31T12:02:23;89.97;;;34.63;;
23506;SDS011;11930;53.076;18.250;2022-10-31T12:05:10;93.03;;;34.23;;
23506;SDS011;11930;53.076;18.250;2022-10-31T12:07:45;77.63;;;36.23;;
23506;SDS011;11930;53.076;18.250;2022-10-31T12:10:12;79.07;;;39.57;;
23506;SDS011;11930;53.076;18.250;2022-10-31T12:20:56;81.70;;;38.07;;
23506;SDS011;11930;53.076;18.250;2022-10-31T12:23:35;83.97;;;36.93;;
23506;SDS011;11930;53.076;18.250;2022-10-31T12:29:07;94.30;;;38.17;;
23506;SDS011;11930;53.076;18.250;2022-10-31T12:39:35;102.20;;;36.57;;
23506;SDS011;11930;53.076;18.250;2022-10-31T12:56:20;93.83;;;38.60;;
23506;SDS011;11930;53.076;18.250;2022-10-31T13:01:32;86.70;;;33.70;;
23506;SDS011;11930;53.076;18.250;2022-10-31T13:04:49;83.40;;;33.87;;
23506;SDS011;11930;53.076;18.250;2022-10-31T13:07:00;89.97;;;34.60;;
23506;SDS011;11930;53.076;18.250;2022-10-31T13:09:38;94.30;;;38.57;;
23506;SDS011;11930;53.076;18.250;2022-10-31T13:12:11;117.13;;;45.80;;
23506;SDS011;11930;53.076;18.250;2022-10-31T13:14:45;198.13;;;100.30;;
23506;SDS011;11930;53.076;18.250;2022-10-31T13:17:23;119.63;;;43.80;;
23506;SDS011;11930;53.076;18.250;2022-10-31T13:19:53;100.63;;;37.00;;
23506;SDS011;11930;53.076;18.250;2022-10-31T13:22:30;132.33;;;59.47;;
23506;SDS011;11930;53.076;18.250;2022-10-31T13:25:13;123.77;;;53.97;;
23506;SDS011;11930;53.076;18.250;2022-10-31T13:27:48;109.33;;;46.53;;
23506;SDS011;11930;53.076;18.250;2022-10-31T13:30:22;109.63;;;39.83;;
23506;SDS011;11930;53.076;18.250;2022-10-31T13:41:04;69.90;;;27.97;;
23506;SDS011;11930;53.076;18.250;2022-10-31T13:46:26;69.80;;;27.70;;
23506;SDS011;11930;53.076;18.250;2022-10-31T13:49:04;82.43;;;29.63;;
23506;SDS011;11930;53.076;18.250;2022-10-31T13:51:48;87.07;;;36.23;;
23506;SDS011;11930;53.076;18.250;2022-10-31T13:54:22;68.63;;;28.40;;
23506;SDS011;11930;53.076;18.250;2022-10-31T13:56:57;64.20;;;27.93;;
23506;SDS011;11930;53.076;18.250;2022-10-31T13:59:27;84.73;;;34.17;;
23506;SDS011;11930;53.076;18.250;2022-10-31T14:02:00;77.60;;;32.13;;
23506;SDS011;11930;53.076;18.250;2022-10-31T14:04:38;87.63;;;31.50;;
23506;SDS011;11930;53.076;18.250;2022-10-31T14:07:14;113.40;;;32.77;;
23506;SDS011;11930;53.076;18.250;2022-10-31T14:17:46;107.83;;;40.20;;
23506;SDS011;11930;53.076;18.250;2022-10-31T14:22:43;103.43;;;32.20;;
23506;SDS011;11930;53.076;18.250;2022-10-31T14:27:50;144.63;;;41.93;;
23506;SDS011;11930;53.076;18.250;2022-10-31T14:30:24;176.43;;;41.57;;
23506;SDS011;11930;53.076;18.250;2022-10-31T14:32:55;205.17;;;51.47;;
23506;SDS011;11930;53.076;18.250;2022-10-31T14:35:25;219.50;;;44.70;;
23506;SDS011;11930;53.076;18.250;2022-10-31T14:41:18;251.83;;;41.83;;
23506;SDS011;11930;53.076;18.250;2022-10-31T14:49:50;127.20;;;44.63;;
23506;SDS011;11930;53.076;18.250;2022-10-31T14:52:25;175.60;;;64.37;;
23506;SDS011;11930;53.076;18.250;2022-10-31T14:54:55;145.80;;;41.80;;
23506;SDS011;11930;53.076;18.250;2022-10-31T14:57:28;142.00;;;40.77;;
23506;SDS011;11930;53.076;18.250;2022-10-31T14:59:58;132.37;;;39.70;;
23506;SDS011;11930;53.076;18.250;2022-10-31T15:02:43;158.33;;;40.83;;
23506;SDS011;11930;53.076;18.250;2022-10-31T15:05:29;146.87;;;40.67;;
23506;SDS011;11930;53.076;18.250;2022-10-31T15:07:57;144.20;;;42.07;;
23506;SDS011;11930;53.076;18.250;2022-10-31T15:10:31;165.03;;;41.57;;
23506;SDS011;11930;53.076;18.250;2022-10-31T15:13:19;123.30;;;41.23;;
23506;SDS011;11930;53.076;18.250;2022-10-31T15:15:47;347.23;;;46.97;;
23506;SDS011;11930;53.076;18.250;2022-10-31T15:18:16;320.77;;;92.97;;
23506;SDS011;11930;53.076;18.250;2022-10-31T15:20:44;216.20;;;58.93;;
23506;SDS011;11930;53.076;18.250;2022-10-31T15:23:14;271.47;;;66.83;;
23506;SDS011;11930;53.076;18.250;2022-10-31T15:25:45;232.57;;;61.33;;
23506;SDS011;11930;53.076;18.250;2022-10-31T15:28:15;264.80;;;53.70;;
23506;SDS011;11930;53.076;18.250;2022-10-31T15:30:54;181.03;;;45.43;;
23506;SDS011;11930;53.076;18.250;2022-10-31T15:33:25;181.67;;;47.37;;
23506;SDS011;11930;53.076;18.250;2022-10-31T15:35:57;407.30;;;52.23;;
23506;SDS011;11930;53.076;18.250;2022-10-31T15:38:25;403.43;;;52.83;;
23506;SDS011;11930;53.076;18.250;2022-10-31T15:40:56;154.10;;;46.07;;
23506;SDS011;11930;53.076;18.250;2022-10-31T15:43:23;389.47;;;151.30;;
23506;SDS011;11930;53.076;18.250;2022-10-31T15:45:49;442.17;;;57.10;;
23506;SDS011;11930;53.076;18.250;2022-10-31T15:48:16;248.33;;;52.50;;
23506;SDS011;11930;53.076;18.250;2022-10-31T15:50:58;219.63;;;54.87;;
23506;SDS011;11930;53.076;18.250;2022-10-31T15:56:04;284.60;;;61.57;;
23506;SDS011;11930;53.076;18.250;2022-10-31T15:58:33;210.13;;;57.60;;
23506;SDS011;11930;53.076;18.250;2022-10-31T16:03:58;202.60;;;48.20;;
23506;SDS011;11930;53.076;18.250;2022-10-31T16:06:27;240.70;;;48.93;;
23506;SDS011;11930;53.076;18.250;2022-10-31T16:08:53;257.80;;;50.87;;
23506;SDS011;11930;53.076;18.250;2022-10-31T16:16:42;223.50;;;49.67;;
23506;SDS011;11930;53.076;18.250;2022-10-31T16:21:45;175.03;;;48.27;;
23506;SDS011;11930;53.076;18.250;2022-10-31T16:26:52;119.47;;;43.07;;
23506;SDS011;11930;53.076;18.250;2022-10-31T16:29:27;126.63;;;40.17;;
23506;SDS011;11930;53.076;18.250;2022-10-31T16:31:58;211.10;;;39.67;;
23506;SDS011;11930;53.076;18.250;2022-10-31T16:34:24;402.03;;;153.40;;
23506;SDS011;11930;53.076;18.250;2022-10-31T16:36:50;404.53;;;150.87;;
23506;SDS011;11930;53.076;18.250;2022-10-31T16:39:17;247.30;;;106.60;;
23506;SDS011;11930;53.076;18.250;2022-10-31T16:41:44;253.07;;;120.90;;
23506;SDS011;11930;53.076;18.250;2022-10-31T16:44:16;148.53;;;51.10;;
23506;SDS011;11930;53.076;18.250;2022-10-31T16:46:43;231.20;;;57.00;;
23506;SDS011;11930;53.076;18.250;2022-10-31T16:49:09;199.07;;;48.87;;
23506;SDS011;11930;53.076;18.250;2022-10-31T16:51:35;379.53;;;120.93;;
23506;SDS011;11930;53.076;18.250;2022-10-31T16:54:01;207.53;;;77.27;;
23506;SDS011;11930;53.076;18.250;2022-10-31T16:56:28;573.83;;;306.67;;
23506;SDS011;11930;53.076;18.250;2022-10-31T16:58:57;230.67;;;69.23;;
23506;SDS011;11930;53.076;18.250;2022-10-31T17:01:25;239.13;;;76.57;;
23506;SDS011;11930;53.076;18.250;2022-10-31T17:03:51;152.00;;;50.87;;
23506;SDS011;11930;53.076;18.250;2022-10-31T17:06:17;197.60;;;67.13;;
23506;SDS011;11930;53.076;18.250;2022-10-31T17:08:43;157.30;;;51.50;;